< < Back
Terminal Aerodrome Forecast


Current Version              Previous Versions:   1  2  3  4  5  6  7  8  9  

Terminal Aerodrome Forecast

346
FTUS42 KGSP 270520
TAFAVL
TAF
KAVL 270520Z 2706/2806 00000KT P6SM FEW045
      TEMPO 2710/2713 3SM BR
     FM271300 34003KT P6SM FEW060
     FM271800 20005KT P6SM BKN045 PROB30 2718/2724 4SM -TSRA
      OVC025CB
     FM280400 34003KT P6SM SCT050=

Latest METAR

864
SAUS70 KWBC 270900 RRG
MTRAVL
METAR KAVL 270854Z AUTO 00000KT 9SM R35/2400VP6000FT FEW005 21/19 A3010
RMK AO2 SLP163 T02110194 55003


USA.gov is the U.S. government's official web portal to all federal, state and local government web resources and services.